sensor_id;sensor_type;location;lat;lon;timestamp;temperature;humidity
3356;DHT22;1691;52.486;13.374;2022-12-18T00:01:20;-3.80;98.70
3356;DHT22;1691;52.486;13.374;2022-12-18T00:03:55;-3.80;98.70
3356;DHT22;1691;52.486;13.374;2022-12-18T00:06:24;-3.80;98.70
3356;DHT22;1691;52.486;13.374;2022-12-18T00:08:52;-3.80;98.70
3356;DHT22;1691;52.486;13.374;2022-12-18T00:11:21;-3.70;98.70
3356;DHT22;1691;52.486;13.374;2022-12-18T00:13:50;-3.60;98.70
3356;DHT22;1691;52.486;13.374;2022-12-18T00:16:20;-3.60;98.70
3356;DHT22;1691;52.486;13.374;2022-12-18T00:18:50;-3.60;98.70
3356;DHT22;1691;52.486;13.374;2022-12-18T00:21:19;-3.60;98.70
3356;DHT22;1691;52.486;13.374;2022-12-18T00:23:47;-3.60;98.70
3356;DHT22;1691;52.486;13.374;2022-12-18T00:26:36;-3.60;98.70
3356;DHT22;1691;52.486;13.374;2022-12-18T00:29:08;-3.60;98.70
3356;DHT22;1691;52.486;13.374;2022-12-18T00:31:41;-3.60;98.70
3356;DHT22;1691;52.486;13.374;2022-12-18T00:34:11;-3.60;98.70
3356;DHT22;1691;52.486;13.374;2022-12-18T00:36:40;-3.60;98.70
3356;DHT22;1691;52.486;13.374;2022-12-18T00:39:08;-3.60;98.70
3356;DHT22;1691;52.486;13.374;2022-12-18T00:41:37;-3.60;98.70
3356;DHT22;1691;52.486;13.374;2022-12-18T00:44:22;-3.60;98.70
3356;DHT22;1691;52.486;13.374;2022-12-18T00:46:50;-3.70;98.70
3356;DHT22;1691;52.486;13.374;2022-12-18T00:49:18;-3.80;98.70
3356;DHT22;1691;52.486;13.374;2022-12-18T00:51:46;-3.80;98.70
3356;DHT22;1691;52.486;13.374;2022-12-18T00:54:13;-3.80;98.70
3356;DHT22;1691;52.486;13.374;2022-12-18T00:56:41;-3.90;98.70
3356;DHT22;1691;52.486;13.374;2022-12-18T00:59:15;-3.80;98.70
3356;DHT22;1691;52.486;13.374;2022-12-18T01:01:43;-3.90;98.70
3356;DHT22;1691;52.486;13.374;2022-12-18T01:04:10;-4.00;98.70
3356;DHT22;1691;52.486;13.374;2022-12-18T01:06:38;-4.00;98.70
3356;DHT22;1691;52.486;13.374;2022-12-18T01:09:05;-4.00;98.70
3356;DHT22;1691;52.486;13.374;2022-12-18T01:11:32;-4.00;98.70
3356;DHT22;1691;52.486;13.374;2022-12-18T01:13:59;-3.90;98.70
3356;DHT22;1691;52.486;13.374;2022-12-18T01:16:27;-3.90;98.70
3356;DHT22;1691;52.486;13.374;2022-12-18T01:18:55;-4.00;98.70
3356;DHT22;1691;52.486;13.374;2022-12-18T01:21:23;-4.00;98.70
3356;DHT22;1691;52.486;13.374;2022-12-18T01:23:52;-4.00;98.70
3356;DHT22;1691;52.486;13.374;2022-12-18T01:26:21;-4.10;98.70
3356;DHT22;1691;52.486;13.374;2022-12-18T01:28:48;-4.10;98.70
3356;DHT22;1691;52.486;13.374;2022-12-18T01:31:21;-4.20;98.70
3356;DHT22;1691;52.486;13.374;2022-12-18T01:33:56;-4.20;98.70
3356;DHT22;1691;52.486;13.374;2022-12-18T01:36:29;-4.30;98.70
3356;DHT22;1691;52.486;13.374;2022-12-18T01:39:02;-4.30;98.70
3356;DHT22;1691;52.486;13.374;2022-12-18T01:41:39;-4.20;98.70
3356;DHT22;1691;52.486;13.374;2022-12-18T01:50:17;-4.20;98.70
3356;DHT22;1691;52.486;13.374;2022-12-18T01:52:52;-4.20;98.70
3356;DHT22;1691;52.486;13.374;2022-12-18T01:55:23;-4.30;98.70
3356;DHT22;1691;52.486;13.374;2022-12-18T01:57:54;-4.20;98.70
3356;DHT22;1691;52.486;13.374;2022-12-18T02:00:24;-4.30;98.70
3356;DHT22;1691;52.486;13.374;2022-12-18T02:02:53;-4.20;98.70
3356;DHT22;1691;52.486;13.374;2022-12-18T02:08:10;-4.20;98.70
3356;DHT22;1691;52.486;13.374;2022-12-18T02:10:45;-4.10;98.70
3356;DHT22;1691;52.486;13.374;2022-12-18T02:13:43;-4.10;98.70
3356;DHT22;1691;52.486;13.374;2022-12-18T02:18:49;-4.20;98.70
3356;DHT22;1691;52.486;13.374;2022-12-18T02:21:25;-4.20;98.70
3356;DHT22;1691;52.486;13.374;2022-12-18T02:27:06;-4.10;98.70
3356;DHT22;1691;52.486;13.374;2022-12-18T02:29:50;-4.10;98.70
3356;DHT22;1691;52.486;13.374;2022-12-18T02:32:36;-4.00;98.70
3356;DHT22;1691;52.486;13.374;2022-12-18T02:35:08;-4.00;98.70
3356;DHT22;1691;52.486;13.374;2022-12-18T02:37:39;-3.90;98.70
3356;DHT22;1691;52.486;13.374;2022-12-18T02:40:08;-3.90;98.70
3356;DHT22;1691;52.486;13.374;2022-12-18T02:42:36;-4.00;98.70
3356;DHT22;1691;52.486;13.374;2022-12-18T02:45:03;-4.00;98.70
3356;DHT22;1691;52.486;13.374;2022-12-18T02:47:34;-4.00;98.70
3356;DHT22;1691;52.486;13.374;2022-12-18T02:50:35;-4.00;98.70
3356;DHT22;1691;52.486;13.374;2022-12-18T02:53:36;-4.00;98.70
3356;DHT22;1691;52.486;13.374;2022-12-18T02:56:35;-3.90;98.70
3356;DHT22;1691;52.486;13.374;2022-12-18T02:59:18;-3.90;98.70
3356;DHT22;1691;52.486;13.374;2022-12-18T03:01:52;-3.90;98.70
3356;DHT22;1691;52.486;13.374;2022-12-18T03:07:09;-3.90;98.70
3356;DHT22;1691;52.486;13.374;2022-12-18T03:09:44;-4.00;98.70
3356;DHT22;1691;52.486;13.374;2022-12-18T03:12:35;-4.00;98.70
3356;DHT22;1691;52.486;13.374;2022-12-18T03:15:12;-4.10;98.70
3356;DHT22;1691;52.486;13.374;2022-12-18T03:17:52;-4.20;98.70
3356;DHT22;1691;52.486;13.374;2022-12-18T03:20:26;-4.30;98.70
3356;DHT22;1691;52.486;13.374;2022-12-18T03:23:10;-4.40;98.70
3356;DHT22;1691;52.486;13.374;2022-12-18T03:25:41;-4.40;98.70
3356;DHT22;1691;52.486;13.374;2022-12-18T03:28:21;-4.50;98.70
3356;DHT22;1691;52.486;13.374;2022-12-18T03:30:55;-4.50;98.70
3356;DHT22;1691;52.486;13.374;2022-12-18T03:33:27;-4.50;98.70
3356;DHT22;1691;52.486;13.374;2022-12-18T03:35:57;-4.60;98.70
3356;DHT22;1691;52.486;13.374;2022-12-18T03:38:24;-4.60;98.70
3356;DHT22;1691;52.486;13.374;2022-12-18T03:44:00;-4.50;98.70
3356;DHT22;1691;52.486;13.374;2022-12-18T03:47:13;-4.50;98.70
3356;DHT22;1691;52.486;13.374;2022-12-18T03:52:57;-4.60;98.70
3356;DHT22;1691;52.486;13.374;2022-12-18T03:55:32;-4.70;98.70
3356;DHT22;1691;52.486;13.374;2022-12-18T03:58:02;-4.70;98.70
3356;DHT22;1691;52.486;13.374;2022-12-18T04:00:31;-4.80;98.70
3356;DHT22;1691;52.486;13.374;2022-12-18T04:03:00;-4.80;98.70
3356;DHT22;1691;52.486;13.374;2022-12-18T04:05:28;-4.80;98.70
3356;DHT22;1691;52.486;13.374;2022-12-18T04:07:56;-4.80;98.70
3356;DHT22;1691;52.486;13.374;2022-12-18T04:10:24;-4.90;98.70
3356;DHT22;1691;52.486;13.374;2022-12-18T04:12:51;-4.90;98.70
3356;DHT22;1691;52.486;13.374;2022-12-18T04:15:23;-4.90;98.70
3356;DHT22;1691;52.486;13.374;2022-12-18T04:17:50;-5.00;98.70
3356;DHT22;1691;52.486;13.374;2022-12-18T04:20:17;-5.00;98.70
3356;DHT22;1691;52.486;13.374;2022-12-18T04:22:44;-5.00;98.70
3356;DHT22;1691;52.486;13.374;2022-12-18T04:25:12;-5.00;98.70
3356;DHT22;1691;52.486;13.374;2022-12-18T04:27:39;-5.00;98.70
3356;DHT22;1691;52.486;13.374;2022-12-18T04:30:07;-5.00;98.70
3356;DHT22;1691;52.486;13.374;2022-12-18T04:32:34;-4.90;98.70
3356;DHT22;1691;52.486;13.374;2022-12-18T04:35:02;-4.90;98.70
3356;DHT22;1691;52.486;13.374;2022-12-18T04:37:30;-4.90;98.70
3356;DHT22;1691;52.486;13.374;2022-12-18T04:39:57;-4.90;98.70
3356;DHT22;1691;52.486;13.374;2022-12-18T04:42:24;-4.90;98.70
3356;DHT22;1691;52.486;13.374;2022-12-18T04:44:51;-5.00;98.70
3356;DHT22;1691;52.486;13.374;2022-12-18T04:47:18;-5.00;98.70
3356;DHT22;1691;52.486;13.374;2022-12-18T04:49:45;-5.00;98.70
3356;DHT22;1691;52.486;13.374;2022-12-18T04:52:12;-5.10;98.70
3356;DHT22;1691;52.486;13.374;2022-12-18T04:54:39;-5.10;98.70
3356;DHT22;1691;52.486;13.374;2022-12-18T04:57:06;-5.10;98.70
3356;DHT22;1691;52.486;13.374;2022-12-18T04:59:33;-5.10;98.70
3356;DHT22;1691;52.486;13.374;2022-12-18T05:02:00;-5.10;98.70
3356;DHT22;1691;52.486;13.374;2022-12-18T05:04:28;-5.10;98.70
3356;DHT22;1691;52.486;13.374;2022-12-18T05:06:55;-5.10;98.70
3356;DHT22;1691;52.486;13.374;2022-12-18T05:09:22;-5.10;98.70
3356;DHT22;1691;52.486;13.374;2022-12-18T05:11:49;-5.10;98.70
3356;DHT22;1691;52.486;13.374;2022-12-18T05:14:16;-5.00;98.70
3356;DHT22;1691;52.486;13.374;2022-12-18T05:16:43;-4.90;98.70
3356;DHT22;1691;52.486;13.374;2022-12-18T05:19:10;-4.90;98.70
3356;DHT22;1691;52.486;13.374;2022-12-18T05:21:38;-4.80;98.70
3356;DHT22;1691;52.486;13.374;2022-12-18T05:24:05;-4.70;98.70
3356;DHT22;1691;52.486;13.374;2022-12-18T05:26:32;-4.70;98.70
3356;DHT22;1691;52.486;13.374;2022-12-18T05:28:59;-4.70;98.70
3356;DHT22;1691;52.486;13.374;2022-12-18T05:31:26;-4.70;98.70
3356;DHT22;1691;52.486;13.374;2022-12-18T05:33:53;-4.70;98.70
3356;DHT22;1691;52.486;13.374;2022-12-18T05:36:20;-4.70;98.70
3356;DHT22;1691;52.486;13.374;2022-12-18T05:38:47;-4.70;98.70
3356;DHT22;1691;52.486;13.374;2022-12-18T05:41:15;-4.70;98.70
3356;DHT22;1691;52.486;13.374;2022-12-18T05:43:43;-4.70;98.70
3356;DHT22;1691;52.486;13.374;2022-12-18T05:46:15;-4.70;98.70
3356;DHT22;1691;52.486;13.374;2022-12-18T05:48:46;-4.70;98.70
3356;DHT22;1691;52.486;13.374;2022-12-18T05:51:18;-4.80;98.70
3356;DHT22;1691;52.486;13.374;2022-12-18T05:53:47;-4.80;98.70
3356;DHT22;1691;52.486;13.374;2022-12-18T05:56:18;-4.80;98.70
3356;DHT22;1691;52.486;13.374;2022-12-18T05:58:46;-4.80;98.70
3356;DHT22;1691;52.486;13.374;2022-12-18T06:01:17;-4.70;98.70
3356;DHT22;1691;52.486;13.374;2022-12-18T06:03:46;-4.70;98.70
3356;DHT22;1691;52.486;13.374;2022-12-18T06:06:25;-4.70;98.70
3356;DHT22;1691;52.486;13.374;2022-12-18T06:08:53;-4.70;98.70
3356;DHT22;1691;52.486;13.374;2022-12-18T06:11:23;-4.70;98.70
3356;DHT22;1691;52.486;13.374;2022-12-18T06:13:53;-4.80;98.70
3356;DHT22;1691;52.486;13.374;2022-12-18T06:16:24;-4.80;98.70
3356;DHT22;1691;52.486;13.374;2022-12-18T06:18:52;-4.80;98.70
3356;DHT22;1691;52.486;13.374;2022-12-18T06:21:20;-4.80;98.70
3356;DHT22;1691;52.486;13.374;2022-12-18T06:23:47;-4.80;98.70
3356;DHT22;1691;52.486;13.374;2022-12-18T06:26:14;-4.80;98.70
3356;DHT22;1691;52.486;13.374;2022-12-18T06:28:41;-4.70;98.70
3356;DHT22;1691;52.486;13.374;2022-12-18T06:31:09;-4.70;98.70
3356;DHT22;1691;52.486;13.374;2022-12-18T06:33:37;-4.70;98.70
3356;DHT22;1691;52.486;13.374;2022-12-18T06:36:10;-4.70;98.70
3356;DHT22;1691;52.486;13.374;2022-12-18T06:38:41;-4.80;98.70
3356;DHT22;1691;52.486;13.374;2022-12-18T06:41:11;-4.80;98.70
3356;DHT22;1691;52.486;13.374;2022-12-18T06:43:39;-4.80;98.70
3356;DHT22;1691;52.486;13.374;2022-12-18T06:46:07;-4.80;98.70
3356;DHT22;1691;52.486;13.374;2022-12-18T06:48:34;-4.80;98.70
3356;DHT22;1691;52.486;13.374;2022-12-18T06:51:01;-4.80;98.70
3356;DHT22;1691;52.486;13.374;2022-12-18T06:53:29;-4.70;98.70
3356;DHT22;1691;52.486;13.374;2022-12-18T06:56:01;-4.80;98.70
3356;DHT22;1691;52.486;13.374;2022-12-18T06:58:34;-4.80;98.70
3356;DHT22;1691;52.486;13.374;2022-12-18T07:01:04;-4.90;98.70
3356;DHT22;1691;52.486;13.374;2022-12-18T07:03:32;-4.90;98.70
3356;DHT22;1691;52.486;13.374;2022-12-18T07:06:00;-4.90;98.70
3356;DHT22;1691;52.486;13.374;2022-12-18T07:08:27;-4.90;98.70
3356;DHT22;1691;52.486;13.374;2022-12-18T07:10:55;-4.90;98.70
3356;DHT22;1691;52.486;13.374;2022-12-18T07:13:23;-4.90;98.70
3356;DHT22;1691;52.486;13.374;2022-12-18T07:15:50;-4.90;98.70
3356;DHT22;1691;52.486;13.374;2022-12-18T07:18:17;-4.90;98.70
3356;DHT22;1691;52.486;13.374;2022-12-18T07:20:44;-4.90;98.70
3356;DHT22;1691;52.486;13.374;2022-12-18T07:23:12;-4.90;98.70
3356;DHT22;1691;52.486;13.374;2022-12-18T07:25:39;-4.90;98.70
3356;DHT22;1691;52.486;13.374;2022-12-18T07:28:06;-4.90;98.70
3356;DHT22;1691;52.486;13.374;2022-12-18T07:30:38;-5.00;98.70
3356;DHT22;1691;52.486;13.374;2022-12-18T07:33:05;-5.00;98.70
3356;DHT22;1691;52.486;13.374;2022-12-18T07:35:33;-4.90;98.70
3356;DHT22;1691;52.486;13.374;2022-12-18T07:38:00;-4.90;98.70
3356;DHT22;1691;52.486;13.374;2022-12-18T07:40:27;-4.90;98.70
3356;DHT22;1691;52.486;13.374;2022-12-18T07:42:54;-4.90;98.70
3356;DHT22;1691;52.486;13.374;2022-12-18T07:45:21;-4.80;98.70
3356;DHT22;1691;52.486;13.374;2022-12-18T07:47:48;-4.80;98.70
3356;DHT22;1691;52.486;13.374;2022-12-18T07:50:15;-4.70;98.70
3356;DHT22;1691;52.486;13.374;2022-12-18T07:52:42;-4.60;98.70
3356;DHT22;1691;52.486;13.374;2022-12-18T07:55:09;-4.60;98.70
3356;DHT22;1691;52.486;13.374;2022-12-18T07:57:36;-4.60;98.70
3356;DHT22;1691;52.486;13.374;2022-12-18T08:00:23;-4.60;98.70
3356;DHT22;1691;52.486;13.374;2022-12-18T08:02:50;-4.60;98.70
3356;DHT22;1691;52.486;13.374;2022-12-18T08:05:18;-4.50;98.70
3356;DHT22;1691;52.486;13.374;2022-12-18T08:07:45;-4.50;98.70
3356;DHT22;1691;52.486;13.374;2022-12-18T08:10:12;-4.50;98.70
3356;DHT22;1691;52.486;13.374;2022-12-18T08:12:40;-4.50;98.70
3356;DHT22;1691;52.486;13.374;2022-12-18T08:15:08;-4.60;98.70
3356;DHT22;1691;52.486;13.374;2022-12-18T08:17:35;-4.50;98.70
3356;DHT22;1691;52.486;13.374;2022-12-18T08:20:02;-4.50;98.70
3356;DHT22;1691;52.486;13.374;2022-12-18T08:22:30;-4.50;98.70
3356;DHT22;1691;52.486;13.374;2022-12-18T08:24:57;-4.50;98.70
3356;DHT22;1691;52.486;13.374;2022-12-18T08:27:24;-4.50;98.70
3356;DHT22;1691;52.486;13.374;2022-12-18T08:29:56;-4.50;98.70
3356;DHT22;1691;52.486;13.374;2022-12-18T08:32:25;-4.50;98.70
3356;DHT22;1691;52.486;13.374;2022-12-18T08:34:53;-4.40;98.70
3356;DHT22;1691;52.486;13.374;2022-12-18T08:37:20;-4.40;98.70
3356;DHT22;1691;52.486;13.374;2022-12-18T08:39:47;-4.40;98.70
3356;DHT22;1691;52.486;13.374;2022-12-18T08:42:14;-4.30;98.70
3356;DHT22;1691;52.486;13.374;2022-12-18T08:44:59;-4.30;98.70
3356;DHT22;1691;52.486;13.374;2022-12-18T08:47:26;-4.20;98.70
3356;DHT22;1691;52.486;13.374;2022-12-18T08:49:53;-4.20;98.70
3356;DHT22;1691;52.486;13.374;2022-12-18T08:52:21;-4.20;98.70
3356;DHT22;1691;52.486;13.374;2022-12-18T08:54:48;-4.20;98.70
3356;DHT22;1691;52.486;13.374;2022-12-18T08:57:15;-4.20;98.70
3356;DHT22;1691;52.486;13.374;2022-12-18T08:59:42;-4.20;98.70
3356;DHT22;1691;52.486;13.374;2022-12-18T09:02:10;-4.10;98.70
3356;DHT22;1691;52.486;13.374;2022-12-18T09:04:38;-4.00;98.70
3356;DHT22;1691;52.486;13.374;2022-12-18T09:07:06;-3.90;98.70
3356;DHT22;1691;52.486;13.374;2022-12-18T09:09:33;-3.90;98.70
3356;DHT22;1691;52.486;13.374;2022-12-18T09:12:00;-3.90;98.70
3356;DHT22;1691;52.486;13.374;2022-12-18T09:14:27;-3.80;98.70
3356;DHT22;1691;52.486;13.374;2022-12-18T09:16:54;-3.90;98.70
3356;DHT22;1691;52.486;13.374;2022-12-18T09:19:21;-3.90;98.70
3356;DHT22;1691;52.486;13.374;2022-12-18T09:21:48;-3.80;98.70
3356;DHT22;1691;52.486;13.374;2022-12-18T09:24:16;-3.80;98.70
3356;DHT22;1691;52.486;13.374;2022-12-18T09:26:44;-3.80;98.70
3356;DHT22;1691;52.486;13.374;2022-12-18T09:29:14;-3.80;98.70
3356;DHT22;1691;52.486;13.374;2022-12-18T09:31:44;-3.90;98.70
3356;DHT22;1691;52.486;13.374;2022-12-18T09:34:11;-3.90;98.70
3356;DHT22;1691;52.486;13.374;2022-12-18T09:36:38;-3.90;98.70
3356;DHT22;1691;52.486;13.374;2022-12-18T09:39:05;-3.90;98.70
3356;DHT22;1691;52.486;13.374;2022-12-18T09:41:44;-3.80;98.70
3356;DHT22;1691;52.486;13.374;2022-12-18T09:44:23;-3.80;98.70
3356;DHT22;1691;52.486;13.374;2022-12-18T09:49:41;-3.90;98.70
3356;DHT22;1691;52.486;13.374;2022-12-18T09:52:24;-3.80;98.70
3356;DHT22;1691;52.486;13.374;2022-12-18T09:57:57;-3.80;98.70
3356;DHT22;1691;52.486;13.374;2022-12-18T10:00:29;-3.70;98.70
3356;DHT22;1691;52.486;13.374;2022-12-18T10:03:01;-3.70;98.70
3356;DHT22;1691;52.486;13.374;2022-12-18T10:05:42;-3.70;98.70
3356;DHT22;1691;52.486;13.374;2022-12-18T10:14:26;-3.50;98.70
3356;DHT22;1691;52.486;13.374;2022-12-18T10:20:31;-3.40;98.70
3356;DHT22;1691;52.486;13.374;2022-12-18T10:25:53;-3.30;98.70
3356;DHT22;1691;52.486;13.374;2022-12-18T10:28:25;-3.30;98.70
3356;DHT22;1691;52.486;13.374;2022-12-18T10:30:53;-3.30;98.70
3356;DHT22;1691;52.486;13.374;2022-12-18T10:33:22;-3.20;98.70
3356;DHT22;1691;52.486;13.374;2022-12-18T10:35:51;-3.10;98.70
3356;DHT22;1691;52.486;13.374;2022-12-18T10:43:34;-2.90;98.70
3356;DHT22;1691;52.486;13.374;2022-12-18T10:46:11;-2.80;98.70
3356;DHT22;1691;52.486;13.374;2022-12-18T10:57:37;-2.90;98.70
3356;DHT22;1691;52.486;13.374;2022-12-18T11:00:25;-2.90;98.70
3356;DHT22;1691;52.486;13.374;2022-12-18T11:02:55;-2.90;98.70
3356;DHT22;1691;52.486;13.374;2022-12-18T11:05:31;-2.90;98.70
3356;DHT22;1691;52.486;13.374;2022-12-18T11:08:00;-2.90;98.70
3356;DHT22;1691;52.486;13.374;2022-12-18T11:10:36;-2.90;98.70
3356;DHT22;1691;52.486;13.374;2022-12-18T11:13:30;-2.80;98.70
3356;DHT22;1691;52.486;13.374;2022-12-18T11:15:59;-2.80;98.70
3356;DHT22;1691;52.486;13.374;2022-12-18T11:18:34;-2.80;98.70
3356;DHT22;1691;52.486;13.374;2022-12-18T11:21:12;-2.80;98.70
3356;DHT22;1691;52.486;13.374;2022-12-18T11:23:53;-2.80;98.70
3356;DHT22;1691;52.486;13.374;2022-12-18T11:26:20;-2.70;98.70
3356;DHT22;1691;52.486;13.374;2022-12-18T11:29:08;-2.60;98.70
3356;DHT22;1691;52.486;13.374;2022-12-18T11:31:37;-2.60;98.70
3356;DHT22;1691;52.486;13.374;2022-12-18T11:34:29;-2.50;98.70
3356;DHT22;1691;52.486;13.374;2022-12-18T11:36:59;-2.50;98.70
3356;DHT22;1691;52.486;13.374;2022-12-18T11:44:57;-2.50;98.70
3356;DHT22;1691;52.486;13.374;2022-12-18T11:50:56;-2.70;98.70
3356;DHT22;1691;52.486;13.374;2022-12-18T11:53:25;-2.80;98.70
3356;DHT22;1691;52.486;13.374;2022-12-18T11:56:00;-2.80;98.70
3356;DHT22;1691;52.486;13.374;2022-12-18T12:04:27;-2.90;98.70
3356;DHT22;1691;52.486;13.374;2022-12-18T12:07:18;-2.90;98.70
3356;DHT22;1691;52.486;13.374;2022-12-18T12:16:10;-2.90;98.70
3356;DHT22;1691;52.486;13.374;2022-12-18T12:26:44;-2.90;98.70
3356;DHT22;1691;52.486;13.374;2022-12-18T12:35:42;-2.80;98.70
3356;DHT22;1691;52.486;13.374;2022-12-18T12:38:28;-2.80;98.70
3356;DHT22;1691;52.486;13.374;2022-12-18T12:41:04;-2.70;98.70
3356;DHT22;1691;52.486;13.374;2022-12-18T12:43:56;-2.60;98.70
3356;DHT22;1691;52.486;13.374;2022-12-18T12:46:25;-2.60;98.70
3356;DHT22;1691;52.486;13.374;2022-12-18T12:48:55;-2.60;98.70
3356;DHT22;1691;52.486;13.374;2022-12-18T12:51:45;-2.50;98.70
3356;DHT22;1691;52.486;13.374;2022-12-18T12:54:32;-2.40;98.70
3356;DHT22;1691;52.486;13.374;2022-12-18T12:57:20;-2.30;98.70
3356;DHT22;1691;52.486;13.374;2022-12-18T13:00:14;-2.30;98.70
3356;DHT22;1691;52.486;13.374;2022-12-18T13:03:08;-2.30;98.70
3356;DHT22;1691;52.486;13.374;2022-12-18T13:05:48;-2.30;98.70
3356;DHT22;1691;52.486;13.374;2022-12-18T13:08:53;-2.40;98.70
3356;DHT22;1691;52.486;13.374;2022-12-18T13:11:44;-2.40;98.70
3356;DHT22;1691;52.486;13.374;2022-12-18T13:14:34;-2.40;98.70
3356;DHT22;1691;52.486;13.374;2022-12-18T13:22:38;-2.40;98.70
3356;DHT22;1691;52.486;13.374;2022-12-18T13:25:29;-2.40;98.70
3356;DHT22;1691;52.486;13.374;2022-12-18T13:36:48;-2.30;98.70
3356;DHT22;1691;52.486;13.374;2022-12-18T13:39:30;-2.30;98.70
3356;DHT22;1691;52.486;13.374;2022-12-18T13:44:36;-2.30;98.70
3356;DHT22;1691;52.486;13.374;2022-12-18T13:47:33;-2.30;98.70
3356;DHT22;1691;52.486;13.374;2022-12-18T13:50:10;-2.40;98.70
3356;DHT22;1691;52.486;13.374;2022-12-18T13:52:47;-2.50;98.70
3356;DHT22;1691;52.486;13.374;2022-12-18T13:55:19;-2.50;98.70
3356;DHT22;1691;52.486;13.374;2022-12-18T13:57:46;-2.60;98.70
3356;DHT22;1691;52.486;13.374;2022-12-18T14:02:58;-2.50;98.70
3356;DHT22;1691;52.486;13.374;2022-12-18T14:05:28;-2.50;98.70
3356;DHT22;1691;52.486;13.374;2022-12-18T14:08:14;-2.50;98.70
3356;DHT22;1691;52.486;13.374;2022-12-18T14:10:55;-2.50;98.70
3356;DHT22;1691;52.486;13.374;2022-12-18T14:13:41;-2.50;98.70
3356;DHT22;1691;52.486;13.374;2022-12-18T14:16:14;-2.60;98.70
3356;DHT22;1691;52.486;13.374;2022-12-18T14:19:10;-2.60;98.70
3356;DHT22;1691;52.486;13.374;2022-12-18T14:21:48;-2.60;98.70
3356;DHT22;1691;52.486;13.374;2022-12-18T14:24:30;-2.70;98.70
3356;DHT22;1691;52.486;13.374;2022-12-18T14:27:37;-2.80;98.70
3356;DHT22;1691;52.486;13.374;2022-12-18T14:30:35;-2.80;98.70
3356;DHT22;1691;52.486;13.374;2022-12-18T14:33:36;-2.90;98.70
3356;DHT22;1691;52.486;13.374;2022-12-18T14:36:44;-2.80;98.70
3356;DHT22;1691;52.486;13.374;2022-12-18T14:40:11;-2.80;98.70
3356;DHT22;1691;52.486;13.374;2022-12-18T14:55:34;-2.90;98.70
3356;DHT22;1691;52.486;13.374;2022-12-18T14:58:17;-2.90;98.70
3356;DHT22;1691;52.486;13.374;2022-12-18T15:00:50;-2.90;98.70
3356;DHT22;1691;52.486;13.374;2022-12-18T15:03:20;-3.00;98.70
3356;DHT22;1691;52.486;13.374;2022-12-18T15:06:36;-3.00;98.70
3356;DHT22;1691;52.486;13.374;2022-12-18T15:09:36;-3.10;98.70
3356;DHT22;1691;52.486;13.374;2022-12-18T15:12:43;-3.10;98.70
3356;DHT22;1691;52.486;13.374;2022-12-18T15:16:15;-3.10;98.70
3356;DHT22;1691;52.486;13.374;2022-12-18T15:19:07;-3.20;98.70
3356;DHT22;1691;52.486;13.374;2022-12-18T15:22:24;-3.20;98.70
3356;DHT22;1691;52.486;13.374;2022-12-18T15:25:36;-3.20;98.70
3356;DHT22;1691;52.486;13.374;2022-12-18T15:34:19;-3.20;98.70
3356;DHT22;1691;52.486;13.374;2022-12-18T15:37:25;-3.20;98.70
3356;DHT22;1691;52.486;13.374;2022-12-18T15:39:56;-3.20;98.70
3356;DHT22;1691;52.486;13.374;2022-12-18T15:42:36;-3.20;98.70
3356;DHT22;1691;52.486;13.374;2022-12-18T15:45:47;-3.20;98.70
3356;DHT22;1691;52.486;13.374;2022-12-18T15:48:44;-3.20;98.70
3356;DHT22;1691;52.486;13.374;2022-12-18T15:51:59;-3.10;98.70
3356;DHT22;1691;52.486;13.374;2022-12-18T15:54:29;-3.10;98.70
3356;DHT22;1691;52.486;13.374;2022-12-18T15:57:25;-3.00;98.70
3356;DHT22;1691;52.486;13.374;2022-12-18T16:00:11;-3.10;98.70
3356;DHT22;1691;52.486;13.374;2022-12-18T16:02:48;-3.20;98.70
3356;DHT22;1691;52.486;13.374;2022-12-18T16:05:36;-3.20;98.70
3356;DHT22;1691;52.486;13.374;2022-12-18T16:08:12;-3.30;98.70
3356;DHT22;1691;52.486;13.374;2022-12-18T16:11:14;-3.40;98.70
3356;DHT22;1691;52.486;13.374;2022-12-18T16:14:41;-3.40;98.70
3356;DHT22;1691;52.486;13.374;2022-12-18T16:17:34;-3.40;98.70
3356;DHT22;1691;52.486;13.374;2022-12-18T16:20:38;-3.30;98.70
3356;DHT22;1691;52.486;13.374;2022-12-18T16:23:43;-3.30;98.70
3356;DHT22;1691;52.486;13.374;2022-12-18T16:26:21;-3.30;98.70
3356;DHT22;1691;52.486;13.374;2022-12-18T16:29:18;-3.30;98.70
3356;DHT22;1691;52.486;13.374;2022-12-18T16:32:23;-3.30;98.70
3356;DHT22;1691;52.486;13.374;2022-12-18T16:35:07;-3.30;98.70
3356;DHT22;1691;52.486;13.374;2022-12-18T16:38:08;-3.30;98.70
3356;DHT22;1691;52.486;13.374;2022-12-18T16:41:56;-3.40;98.70
3356;DHT22;1691;52.486;13.374;2022-12-18T16:44:53;-3.40;98.70
3356;DHT22;1691;52.486;13.374;2022-12-18T16:47:43;-3.40;98.70
3356;DHT22;1691;52.486;13.374;2022-12-18T16:50:40;-3.50;98.70
3356;DHT22;1691;52.486;13.374;2022-12-18T16:53:50;-3.50;98.70
3356;DHT22;1691;52.486;13.374;2022-12-18T16:56:38;-3.40;98.70
3356;DHT22;1691;52.486;13.374;2022-12-18T16:59:18;-3.40;98.70
3356;DHT22;1691;52.486;13.374;2022-12-18T17:02:16;-3.40;98.70
3356;DHT22;1691;52.486;13.374;2022-12-18T17:05:21;-3.40;98.70
3356;DHT22;1691;52.486;13.374;2022-12-18T17:08:03;-3.40;98.70
3356;DHT22;1691;52.486;13.374;2022-12-18T17:10:40;-3.40;98.70
3356;DHT22;1691;52.486;13.374;2022-12-18T17:13:18;-3.40;98.70
3356;DHT22;1691;52.486;13.374;2022-12-18T17:16:04;-3.50;98.70
3356;DHT22;1691;52.486;13.374;2022-12-18T17:18:38;-3.50;98.70
3356;DHT22;1691;52.486;13.374;2022-12-18T17:21:12;-3.60;98.70
3356;DHT22;1691;52.486;13.374;2022-12-18T17:23:50;-3.60;98.70
3356;DHT22;1691;52.486;13.374;2022-12-18T17:26:42;-3.60;98.70
3356;DHT22;1691;52.486;13.374;2022-12-18T17:29:46;-3.70;98.70
3356;DHT22;1691;52.486;13.374;2022-12-18T17:33:24;-3.70;98.70
3356;DHT22;1691;52.486;13.374;2022-12-18T17:36:12;-3.70;98.70
3356;DHT22;1691;52.486;13.374;2022-12-18T17:39:02;-3.70;98.70
3356;DHT22;1691;52.486;13.374;2022-12-18T17:41:46;-3.70;98.70
3356;DHT22;1691;52.486;13.374;2022-12-18T17:44:31;-3.70;98.70
3356;DHT22;1691;52.486;13.374;2022-12-18T17:47:25;-3.80;98.70
3356;DHT22;1691;52.486;13.374;2022-12-18T17:50:14;-3.80;98.70
3356;DHT22;1691;52.486;13.374;2022-12-18T17:53:02;-3.80;98.70
3356;DHT22;1691;52.486;13.374;2022-12-18T17:55:42;-3.80;98.70
3356;DHT22;1691;52.486;13.374;2022-12-18T17:58:46;-3.80;98.70
3356;DHT22;1691;52.486;13.374;2022-12-18T18:01:38;-3.80;98.70
3356;DHT22;1691;52.486;13.374;2022-12-18T18:04:16;-3.70;98.70
3356;DHT22;1691;52.486;13.374;2022-12-18T18:06:54;-3.70;98.70
3356;DHT22;1691;52.486;13.374;2022-12-18T18:09:28;-3.70;98.70
3356;DHT22;1691;52.486;13.374;2022-12-18T18:13:01;-3.70;98.70
3356;DHT22;1691;52.486;13.374;2022-12-18T18:16:02;-3.70;98.70
3356;DHT22;1691;52.486;13.374;2022-12-18T18:18:50;-3.70;98.70
3356;DHT22;1691;52.486;13.374;2022-12-18T18:21:18;-3.70;98.70
3356;DHT22;1691;52.486;13.374;2022-12-18T18:23:54;-3.70;98.70
3356;DHT22;1691;52.486;13.374;2022-12-18T18:26:31;-3.70;98.70
3356;DHT22;1691;52.486;13.374;2022-12-18T18:29:20;-3.80;98.70
3356;DHT22;1691;52.486;13.374;2022-12-18T18:32:09;-3.80;98.70
3356;DHT22;1691;52.486;13.374;2022-12-18T18:37:46;-3.80;98.70
3356;DHT22;1691;52.486;13.374;2022-12-18T18:40:23;-3.90;98.70
3356;DHT22;1691;52.486;13.374;2022-12-18T18:46:37;-3.90;98.70
3356;DHT22;1691;52.486;13.374;2022-12-18T18:49:16;-3.90;98.70
3356;DHT22;1691;52.486;13.374;2022-12-18T18:52:04;-3.90;98.70
3356;DHT22;1691;52.486;13.374;2022-12-18T18:54:41;-4.00;98.70
3356;DHT22;1691;52.486;13.374;2022-12-18T18:57:41;-4.00;98.70
3356;DHT22;1691;52.486;13.374;2022-12-18T19:00:41;-4.00;98.70
3356;DHT22;1691;52.486;13.374;2022-12-18T19:03:34;-4.00;98.70